Detroit, Michigan
Traffic Map
Current Weather Conditions
Detroit, Michigan
Clear
Clear
39°
Feels Like: 36°
Wind Chill: 36° Ceiling: Unl
Heat Index: 39° Visibility: 15mi
Dew Point: 36° Wind: 5mph
Humidity: 87% Direction: 320° (NW)
Pressure: 30.25in Gusts: 0mph
Raw Report DataCYQG 230800Z 32004KT 15SM SKC 04/02 A3025 RMK SLP247
Traffic Incident Summary
Active as of:
Severity:
Category:
InformationThere was an issue retrieving the traffic information for this location. Please try a different location or try again shortly.
Advertisements
Track Severe Weather on mobile